createdAt,value
2022-10-06T00:02:24.957Z,82.10
2022-10-06T00:04:52.040Z,82.20
2022-10-06T00:07:18.817Z,82.20
2022-10-06T00:09:45.561Z,82.40
2022-10-06T00:12:12.297Z,82.50
2022-10-06T00:14:39.026Z,82.50
2022-10-06T00:17:06.045Z,82.50
2022-10-06T00:19:32.817Z,82.70
2022-10-06T00:21:59.542Z,82.60
2022-10-06T00:24:27.176Z,82.60
2022-10-06T00:26:53.865Z,82.80
2022-10-06T00:29:20.697Z,82.80
2022-10-06T00:31:47.528Z,82.90
2022-10-06T00:34:14.309Z,83.10
2022-10-06T00:36:41.075Z,83.20
2022-10-06T00:39:07.783Z,83.30
2022-10-06T00:41:34.471Z,83.30
2022-10-06T00:44:01.792Z,83.40
2022-10-06T00:46:46.928Z,83.60
2022-10-06T00:49:27.712Z,83.60
2022-10-06T00:52:07.151Z,83.70
2022-10-06T00:54:36.091Z,83.70
2022-10-06T00:57:04.449Z,83.80
2022-10-06T00:59:31.693Z,83.90
2022-10-06T01:02:01.489Z,84.00
2022-10-06T01:04:31.782Z,84.10
2022-10-06T01:06:59.528Z,84.10
2022-10-06T01:09:27.248Z,84.20
2022-10-06T01:11:56.670Z,84.30
2022-10-06T01:14:24.611Z,84.40
2022-10-06T01:16:59.878Z,84.50
2022-10-06T01:19:31.753Z,84.50
2022-10-06T01:22:00.766Z,84.60
2022-10-06T01:24:28.597Z,84.80
2022-10-06T01:26:55.849Z,84.90
2022-10-06T01:29:22.629Z,85.10
2022-10-06T01:31:49.333Z,85.30
2022-10-06T01:34:16.065Z,85.60
2022-10-06T01:36:42.843Z,85.30
2022-10-06T01:39:09.612Z,85.70
2022-10-06T01:41:36.368Z,86.10
2022-10-06T01:44:03.137Z,86.50
2022-10-06T01:46:30.592Z,86.80
2022-10-06T01:48:57.510Z,87.10
2022-10-06T01:51:24.290Z,87.50
2022-10-06T01:53:50.982Z,87.70
2022-10-06T01:56:17.837Z,87.80
2022-10-06T01:58:44.569Z,88.30
2022-10-06T02:01:11.346Z,88.00
2022-10-06T02:03:39.542Z,87.90
2022-10-06T02:06:06.900Z,88.40
2022-10-06T02:08:34.249Z,88.30
2022-10-06T02:11:09.227Z,88.40
2022-10-06T02:13:37.481Z,88.70
2022-10-06T02:16:06.830Z,88.90
2022-10-06T02:18:34.145Z,89.20
2022-10-06T02:21:01.979Z,89.60
2022-10-06T02:23:30.192Z,90.00
2022-10-06T02:26:04.868Z,90.20
2022-10-06T02:28:32.459Z,90.60
2022-10-06T02:31:08.420Z,90.80
2022-10-06T02:33:36.252Z,90.50
2022-10-06T02:36:04.335Z,90.70
2022-10-06T02:38:32.478Z,90.90
2022-10-06T02:41:00.708Z,91.00
2022-10-06T02:43:31.644Z,91.10
2022-10-06T02:46:04.198Z,91.50
2022-10-06T02:48:32.213Z,91.40
2022-10-06T02:51:00.173Z,91.70
2022-10-06T02:53:27.141Z,91.80
2022-10-06T02:56:10.808Z,91.80
2022-10-06T02:58:39.807Z,92.00
2022-10-06T03:01:14.914Z,91.90
2022-10-06T03:03:41.695Z,92.10
2022-10-06T03:06:21.815Z,92.40
2022-10-06T03:08:50.268Z,92.70
2022-10-06T03:11:19.712Z,92.70
2022-10-06T03:13:47.183Z,92.90
2022-10-06T03:16:19.382Z,93.20
2022-10-06T03:18:47.457Z,93.60
2022-10-06T03:21:15.150Z,93.80
2022-10-06T03:23:47.588Z,93.90
2022-10-06T03:26:15.930Z,94.20
2022-10-06T03:28:42.718Z,94.40
2022-10-06T03:31:09.710Z,94.40
2022-10-06T03:33:36.711Z,94.40
2022-10-06T03:36:06.969Z,94.80
2022-10-06T03:38:34.248Z,95.20
2022-10-06T03:41:10.302Z,95.10
2022-10-06T03:43:37.558Z,95.20
2022-10-06T03:46:04.914Z,95.20
2022-10-06T03:48:35.593Z,95.30
2022-10-06T03:51:04.980Z,95.90
2022-10-06T03:53:32.725Z,95.80
2022-10-06T03:56:10.706Z,95.80
2022-10-06T03:58:39.787Z,96.10
2022-10-06T04:01:11.606Z,96.20
2022-10-06T04:03:38.565Z,96.30
2022-10-06T04:06:07.016Z,96.50
2022-10-06T04:08:34.979Z,96.60
2022-10-06T04:11:28.822Z,96.80
2022-10-06T04:14:00.618Z,97.00
2022-10-06T04:16:32.488Z,96.90
2022-10-06T04:19:01.395Z,96.80
2022-10-06T04:21:29.320Z,97.20
2022-10-06T04:23:57.393Z,97.30
2022-10-06T04:26:26.766Z,97.20
2022-10-06T04:28:54.399Z,97.30
2022-10-06T04:31:26.542Z,97.40
2022-10-06T04:33:55.112Z,97.30
2022-10-06T04:36:24.233Z,97.70
2022-10-06T04:38:51.693Z,97.90
2022-10-06T04:41:20.128Z,98.00
2022-10-06T04:43:47.862Z,98.00
2022-10-06T04:46:40.954Z,98.10
2022-10-06T04:49:02.399Z,98.20
2022-10-06T04:51:29.669Z,98.30
2022-10-06T04:53:56.395Z,98.40
2022-10-06T04:56:29.300Z,98.40
2022-10-06T04:58:57.009Z,98.50
2022-10-06T05:01:30.098Z,98.70
2022-10-06T05:03:58.165Z,98.90
2022-10-06T05:06:30.778Z,98.80
2022-10-06T05:09:00.347Z,99.00
2022-10-06T05:11:27.588Z,99.10
2022-10-06T05:13:55.863Z,99.10
2022-10-06T05:16:24.347Z,99.50
2022-10-06T05:18:51.451Z,99.80
2022-10-06T05:21:29.094Z,99.80
2022-10-06T05:23:56.407Z,99.90
2022-10-06T05:26:25.762Z,99.70
2022-10-06T05:28:52.622Z,99.80
2022-10-06T05:31:31.520Z,99.90
2022-10-06T05:33:59.340Z,99.80
2022-10-06T05:36:29.656Z,99.70
2022-10-06T05:38:57.452Z,99.70
2022-10-06T05:41:26.554Z,99.50
2022-10-06T05:43:53.464Z,99.50
2022-10-06T05:46:25.445Z,99.50
2022-10-06T05:48:56.859Z,99.50
2022-10-06T05:51:30.396Z,99.50
2022-10-06T05:53:58.855Z,99.40
2022-10-06T05:56:27.667Z,99.30
2022-10-06T05:58:56.095Z,99.30
2022-10-06T06:01:31.518Z,99.30
2022-10-06T06:04:03.422Z,99.30
2022-10-06T06:06:42.120Z,99.20
2022-10-06T06:09:13.624Z,99.30
2022-10-06T06:11:42.979Z,99.20
2022-10-06T06:14:12.274Z,99.50
2022-10-06T06:16:40.837Z,99.10
2022-10-06T06:19:09.147Z,99.00
2022-10-06T06:21:36.507Z,99.00
2022-10-06T06:24:04.087Z,99.00
2022-10-06T06:26:32.881Z,99.00
2022-10-06T06:29:03.833Z,98.90
2022-10-06T06:31:36.651Z,98.80
2022-10-06T06:34:06.432Z,98.70
2022-10-06T06:36:40.597Z,98.70
2022-10-06T06:39:09.496Z,98.60
2022-10-06T06:41:41.367Z,98.70
2022-10-06T06:44:11.129Z,98.70
2022-10-06T06:46:38.935Z,98.80
2022-10-06T06:49:06.298Z,98.80
2022-10-06T06:51:40.378Z,98.80
2022-10-06T06:54:08.435Z,98.70
2022-10-06T06:56:35.509Z,98.70
2022-10-06T06:59:06.529Z,98.60
2022-10-06T07:01:33.320Z,98.80
2022-10-06T07:04:00.153Z,98.80
2022-10-06T07:06:29.432Z,98.40
2022-10-06T07:08:58.237Z,98.40
2022-10-06T07:11:39.301Z,98.70
2022-10-06T07:14:09.222Z,98.40
2022-10-06T07:16:54.390Z,98.30
2022-10-06T07:19:40.847Z,98.20
2022-10-06T07:22:26.152Z,98.20
2022-10-06T07:25:11.709Z,98.10
2022-10-06T07:27:44.597Z,97.90
2022-10-06T07:30:19.094Z,97.80
2022-10-06T07:32:46.552Z,97.50
2022-10-06T07:35:13.418Z,97.40
2022-10-06T07:37:40.804Z,97.20
2022-10-06T07:40:08.536Z,97.00
2022-10-06T07:42:48.277Z,97.00
2022-10-06T07:45:35.879Z,96.70
2022-10-06T07:48:02.880Z,96.40
2022-10-06T07:50:29.974Z,95.90
2022-10-06T07:52:56.800Z,95.60
2022-10-06T07:55:23.664Z,95.60
2022-10-06T07:57:51.324Z,95.60
2022-10-06T08:00:22.293Z,95.40
2022-10-06T08:02:49.353Z,94.60
2022-10-06T08:05:16.151Z,94.40
2022-10-06T08:07:42.909Z,94.40
2022-10-06T08:10:09.683Z,93.90
2022-10-06T08:12:40.697Z,93.70
2022-10-06T08:15:11.217Z,93.80
2022-10-06T08:17:38.729Z,93.90
2022-10-06T08:20:08.002Z,93.90
2022-10-06T08:22:36.100Z,93.90
2022-10-06T08:25:07.000Z,94.10
2022-10-06T08:27:35.618Z,94.40
2022-10-06T08:30:04.880Z,94.70
2022-10-06T08:32:32.864Z,94.50
2022-10-06T08:34:59.797Z,94.60
2022-10-06T08:37:27.298Z,94.60
2022-10-06T08:39:54.882Z,94.50
2022-10-06T08:42:37.018Z,94.50
2022-10-06T08:45:07.001Z,94.70
2022-10-06T08:47:37.230Z,94.70
2022-10-06T08:50:09.718Z,94.70
2022-10-06T08:52:53.348Z,94.60
2022-10-06T08:56:01.192Z,94.90
2022-10-06T08:58:48.126Z,95.20
2022-10-06T09:01:18.727Z,95.30
2022-10-06T09:03:48.777Z,94.90
2022-10-06T09:06:40.375Z,94.80
2022-10-06T09:09:27.699Z,94.70
2022-10-06T09:12:04.704Z,94.40
2022-10-06T09:14:42.107Z,94.20
2022-10-06T09:17:13.834Z,93.80
2022-10-06T09:19:47.781Z,94.00
2022-10-06T09:22:24.368Z,94.10
2022-10-06T09:24:56.068Z,94.10
2022-10-06T09:27:28.127Z,94.10
2022-10-06T09:29:55.362Z,94.00
2022-10-06T09:32:31.924Z,94.10
2022-10-06T09:35:04.568Z,94.10
2022-10-06T09:37:52.195Z,94.30
2022-10-06T09:40:51.063Z,94.40
2022-10-06T09:43:28.732Z,94.40
2022-10-06T09:45:57.242Z,94.40
2022-10-06T09:48:27.273Z,94.30
2022-10-06T09:51:17.121Z,94.30
2022-10-06T09:54:00.376Z,94.40
2022-10-06T09:56:27.270Z,94.30
2022-10-06T09:58:56.583Z,94.40
2022-10-06T10:01:28.387Z,94.40
2022-10-06T10:04:19.381Z,94.50
2022-10-06T10:06:47.910Z,94.70
2022-10-06T10:09:21.681Z,94.80
2022-10-06T10:12:20.197Z,94.70
2022-10-06T10:14:47.393Z,94.70
2022-10-06T10:17:38.045Z,94.60
2022-10-06T10:20:17.786Z,94.30
2022-10-06T10:22:46.417Z,93.80
2022-10-06T10:25:37.593Z,93.80
2022-10-06T10:28:17.481Z,93.90
2022-10-06T10:31:03.947Z,94.10
2022-10-06T10:33:53.923Z,93.30
2022-10-06T10:36:50.775Z,92.20
2022-10-06T10:39:37.125Z,93.00
2022-10-06T10:42:10.203Z,92.70
2022-10-06T10:44:42.994Z,92.80
2022-10-06T10:47:27.405Z,92.20
2022-10-06T10:50:08.097Z,92.10
2022-10-06T10:52:41.351Z,92.10
2022-10-06T10:55:51.757Z,92.30
2022-10-06T10:58:40.237Z,92.20
2022-10-06T11:01:29.473Z,91.80
2022-10-06T11:03:57.343Z,91.40
2022-10-06T11:06:32.967Z,91.60
2022-10-06T11:09:10.884Z,91.60
2022-10-06T11:12:11.407Z,91.90
2022-10-06T11:14:51.428Z,91.90
2022-10-06T11:17:46.616Z,91.90
2022-10-06T11:20:41.596Z,91.80
2022-10-06T11:23:18.597Z,91.40
2022-10-06T11:26:04.862Z,91.20
2022-10-06T11:28:45.900Z,91.60
2022-10-06T11:31:36.853Z,91.70
2022-10-06T11:34:06.319Z,91.40
2022-10-06T11:36:47.084Z,91.00
2022-10-06T11:39:55.556Z,90.90
2022-10-06T11:42:25.971Z,90.80
2022-10-06T11:45:05.914Z,90.40
2022-10-06T11:47:47.304Z,90.90
2022-10-06T11:50:33.232Z,91.00
2022-10-06T11:53:00.467Z,90.90
2022-10-06T11:55:28.924Z,91.40
2022-10-06T11:58:17.864Z,91.40
2022-10-06T12:00:53.098Z,91.40
2022-10-06T12:03:29.514Z,91.40
2022-10-06T12:05:57.245Z,91.30
2022-10-06T12:08:38.028Z,91.00
2022-10-06T12:11:40.577Z,91.10
2022-10-06T12:17:32.929Z,91.00
2022-10-06T12:20:14.035Z,91.30
2022-10-06T12:22:58.953Z,91.00
2022-10-06T12:25:29.026Z,90.90
2022-10-06T12:28:16.484Z,90.70
2022-10-06T12:30:51.900Z,90.90
2022-10-06T12:33:20.051Z,90.50
2022-10-06T12:35:47.533Z,90.40
2022-10-06T12:38:41.414Z,90.20
2022-10-06T12:41:12.644Z,90.20
2022-10-06T12:43:54.599Z,90.30
2022-10-06T12:46:25.999Z,91.00
2022-10-06T12:49:12.169Z,90.90
2022-10-06T12:51:41.365Z,91.00
2022-10-06T12:54:19.559Z,91.20
2022-10-06T12:57:03.612Z,91.30
2022-10-06T12:59:35.248Z,91.20
2022-10-06T13:02:08.009Z,91.40
2022-10-06T13:04:43.011Z,91.60
2022-10-06T13:07:18.904Z,91.70
2022-10-06T13:09:47.261Z,91.90
2022-10-06T13:12:27.412Z,91.90
2022-10-06T13:15:13.030Z,92.00
2022-10-06T13:17:46.180Z,92.10
2022-10-06T13:20:41.911Z,91.90
2022-10-06T13:23:19.895Z,91.60
2022-10-06T13:26:18.742Z,91.50
2022-10-06T13:28:48.540Z,91.60
2022-10-06T13:31:28.252Z,91.50
2022-10-06T13:34:04.822Z,91.40
2022-10-06T13:36:37.192Z,91.60
2022-10-06T13:39:05.146Z,91.50
2022-10-06T13:41:37.985Z,91.80
2022-10-06T13:44:18.854Z,91.90
2022-10-06T13:46:49.108Z,92.00
2022-10-06T13:49:26.126Z,92.20
2022-10-06T13:51:54.976Z,92.40
2022-10-06T13:54:25.295Z,92.60
2022-10-06T13:56:53.153Z,92.50
2022-10-06T13:59:28.873Z,92.50
2022-10-06T14:02:15.461Z,92.50
2022-10-06T14:04:42.307Z,92.70
2022-10-06T14:07:13.074Z,92.60
2022-10-06T14:09:41.135Z,92.70
2022-10-06T14:12:14.891Z,92.70
2022-10-06T14:14:47.768Z,92.90
2022-10-06T14:17:26.041Z,92.90
2022-10-06T14:19:52.749Z,92.80
2022-10-06T14:22:32.227Z,92.80
2022-10-06T14:24:58.957Z,92.80
2022-10-06T14:27:25.958Z,92.80
2022-10-06T14:29:52.967Z,92.70
2022-10-06T14:32:20.257Z,92.60
2022-10-06T14:34:47.224Z,92.40
2022-10-06T14:37:16.671Z,92.10
2022-10-06T14:39:44.388Z,92.30
2022-10-06T14:42:12.835Z,92.30
2022-10-06T14:44:39.598Z,92.20
2022-10-06T14:47:09.165Z,92.30
2022-10-06T14:49:37.726Z,92.50
2022-10-06T14:52:05.516Z,92.40
2022-10-06T14:54:34.237Z,92.40
2022-10-06T14:57:00.986Z,92.30
2022-10-06T14:59:27.943Z,92.40
2022-10-06T15:01:54.793Z,92.50
2022-10-06T15:04:25.222Z,93.00
2022-10-06T15:07:10.409Z,92.60
2022-10-06T15:09:37.538Z,92.50
2022-10-06T15:12:04.350Z,92.50
2022-10-06T15:14:31.205Z,92.90
2022-10-06T15:17:02.207Z,92.60
2022-10-06T15:19:28.887Z,92.70
2022-10-06T15:21:56.113Z,92.90
2022-10-06T15:24:22.814Z,92.90
2022-10-06T15:27:08.297Z,92.90
2022-10-06T15:29:35.306Z,92.90
2022-10-06T15:32:09.719Z,92.80
2022-10-06T15:34:37.686Z,92.90
2022-10-06T15:37:09.189Z,92.90
2022-10-06T15:39:37.703Z,92.90
2022-10-06T15:42:05.306Z,93.00
2022-10-06T15:44:34.349Z,93.20
2022-10-06T15:47:02.251Z,93.20
2022-10-06T15:49:34.749Z,93.30
2022-10-06T15:52:03.695Z,93.40
2022-10-06T15:54:33.771Z,93.40
2022-10-06T15:57:02.343Z,93.60
2022-10-06T15:59:31.888Z,93.70
2022-10-06T16:02:02.379Z,93.80
2022-10-06T16:04:47.886Z,93.90
2022-10-06T16:07:17.363Z,93.90
2022-10-06T16:09:46.283Z,94.00
2022-10-06T16:12:16.503Z,94.20
2022-10-06T16:14:43.868Z,94.30
2022-10-06T16:17:11.692Z,94.40
2022-10-06T16:19:40.276Z,94.40
2022-10-06T16:22:09.502Z,94.50
2022-10-06T16:24:36.213Z,94.50
2022-10-06T16:27:10.011Z,94.40
2022-10-06T16:29:38.296Z,94.50
2022-10-06T16:32:08.139Z,94.60
2022-10-06T16:34:34.970Z,94.60
2022-10-06T16:37:01.760Z,94.70
2022-10-06T16:39:28.566Z,94.70
2022-10-06T16:41:55.358Z,94.80
2022-10-06T16:44:22.082Z,94.80
2022-10-06T16:46:48.804Z,94.80
2022-10-06T16:49:15.634Z,94.90
2022-10-06T16:51:43.694Z,95.00
2022-10-06T16:54:12.612Z,95.00
2022-10-06T16:56:41.770Z,94.80
2022-10-06T16:59:17.127Z,94.70
2022-10-06T17:01:44.572Z,94.80
2022-10-06T17:04:13.844Z,94.90
2022-10-06T17:06:48.811Z,95.00
2022-10-06T17:09:21.709Z,95.10
2022-10-06T17:12:00.120Z,95.10
2022-10-06T17:14:27.989Z,95.10
2022-10-06T17:16:58.617Z,95.00
2022-10-06T17:19:29.120Z,95.00
2022-10-06T17:21:59.508Z,95.00
2022-10-06T17:24:28.014Z,95.20
2022-10-06T17:26:55.759Z,94.80
2022-10-06T17:29:23.347Z,94.80
2022-10-06T17:31:56.637Z,94.80
2022-10-06T17:34:27.732Z,94.80
2022-10-06T17:36:58.413Z,94.70
2022-10-06T17:39:25.193Z,94.60
2022-10-06T17:41:53.753Z,94.60
2022-10-06T17:44:23.273Z,94.70
2022-10-06T17:46:53.071Z,94.90
2022-10-06T17:49:25.552Z,95.00
2022-10-06T17:51:59.099Z,95.00
2022-10-06T17:54:27.747Z,95.00
2022-10-06T17:57:06.609Z,95.00
2022-10-06T17:59:33.866Z,95.00
2022-10-06T18:02:02.804Z,94.90
2022-10-06T18:04:30.051Z,95.10
2022-10-06T18:07:11.343Z,94.80
2022-10-06T18:09:38.242Z,94.70
2022-10-06T18:12:08.202Z,94.60
2022-10-06T18:14:35.250Z,94.60
2022-10-06T18:17:03.939Z,94.70
2022-10-06T18:19:35.698Z,94.80
2022-10-06T18:22:10.848Z,95.20
2022-10-06T18:24:38.589Z,95.00
2022-10-06T18:27:06.564Z,95.00
2022-10-06T18:29:35.912Z,95.10
2022-10-06T18:32:42.088Z,95.20
2022-10-06T18:37:41.045Z,95.30
2022-10-06T18:40:10.077Z,95.30
2022-10-06T18:42:40.771Z,95.20
2022-10-06T18:45:27.390Z,95.00
2022-10-06T18:48:12.951Z,95.00
2022-10-06T18:50:40.038Z,94.90
2022-10-06T18:53:06.989Z,95.00
2022-10-06T18:55:35.046Z,95.00
2022-10-06T18:58:02.554Z,95.10
2022-10-06T19:00:29.427Z,95.10
2022-10-06T19:02:57.043Z,95.10
2022-10-06T19:05:24.287Z,95.20
2022-10-06T19:07:53.653Z,95.20
2022-10-06T19:10:20.522Z,95.40
2022-10-06T19:12:48.452Z,95.40
2022-10-06T19:15:20.322Z,95.40
2022-10-06T19:17:47.458Z,95.70
2022-10-06T19:20:14.347Z,95.40
2022-10-06T19:22:41.168Z,95.40
2022-10-06T19:25:08.116Z,95.40
2022-10-06T19:27:35.990Z,95.40
2022-10-06T19:30:03.055Z,95.30
2022-10-06T19:32:33.570Z,95.20
2022-10-06T19:35:00.424Z,95.30
2022-10-06T19:37:29.419Z,95.30
2022-10-06T19:39:56.210Z,95.40
2022-10-06T19:42:41.370Z,95.50
2022-10-06T19:45:09.526Z,95.60
2022-10-06T19:47:36.497Z,95.70
2022-10-06T19:50:08.733Z,95.90
2022-10-06T19:52:38.595Z,96.10
2022-10-06T19:55:05.946Z,96.30
2022-10-06T19:57:33.680Z,96.50
2022-10-06T20:00:01.083Z,96.70
2022-10-06T20:02:28.914Z,96.90
2022-10-06T20:04:56.594Z,96.90
2022-10-06T20:07:27.696Z,97.00
2022-10-06T20:09:55.450Z,97.10
2022-10-06T20:12:25.263Z,97.20
2022-10-06T20:14:56.524Z,97.30
2022-10-06T20:17:23.458Z,97.40
2022-10-06T20:19:55.182Z,97.50
2022-10-06T20:22:25.012Z,97.50
2022-10-06T20:24:52.272Z,97.60
2022-10-06T20:27:19.871Z,97.60
2022-10-06T20:29:47.288Z,97.60
2022-10-06T20:32:14.178Z,97.70
2022-10-06T20:34:41.030Z,97.70
2022-10-06T20:37:07.760Z,97.80
2022-10-06T20:39:53.055Z,97.80
2022-10-06T20:42:21.152Z,97.80
2022-10-06T20:44:48.007Z,97.80
2022-10-06T20:47:16.559Z,97.70
2022-10-06T20:49:43.843Z,97.60
2022-10-06T20:52:14.098Z,97.50
2022-10-06T20:54:41.197Z,97.40
2022-10-06T20:57:09.297Z,97.40
2022-10-06T20:59:36.208Z,97.40
2022-10-06T21:02:04.616Z,97.40
2022-10-06T21:04:31.651Z,97.40
2022-10-06T21:06:58.518Z,97.40
2022-10-06T21:09:28.294Z,97.30
2022-10-06T21:11:56.499Z,97.20
2022-10-06T21:14:23.665Z,97.20
2022-10-06T21:16:51.084Z,97.10
2022-10-06T21:19:19.395Z,97.10
2022-10-06T21:21:52.867Z,97.00
2022-10-06T21:24:20.687Z,96.90
2022-10-06T21:26:48.271Z,96.90
2022-10-06T21:29:15.773Z,96.80
2022-10-06T21:31:43.723Z,97.10
2022-10-06T21:34:10.935Z,96.80
2022-10-06T21:36:38.255Z,96.70
2022-10-06T21:39:06.400Z,96.60
2022-10-06T21:41:38.907Z,96.60
2022-10-06T21:44:07.149Z,96.50
2022-10-06T21:46:39.330Z,96.50
2022-10-06T21:49:14.148Z,96.50
2022-10-06T21:51:42.398Z,96.40
2022-10-06T21:54:11.923Z,96.40
2022-10-06T21:56:39.417Z,96.40
2022-10-06T21:59:06.717Z,96.30
2022-10-06T22:01:35.994Z,96.30
2022-10-06T22:04:03.160Z,96.30
2022-10-06T22:06:31.143Z,96.10
2022-10-06T22:08:58.787Z,96.10
2022-10-06T22:11:30.842Z,96.00
2022-10-06T22:14:00.252Z,96.00
2022-10-06T22:16:29.213Z,96.00
2022-10-06T22:18:56.371Z,95.90
2022-10-06T22:21:41.387Z,95.90
2022-10-06T22:24:12.264Z,95.90
2022-10-06T22:26:40.858Z,95.90
2022-10-06T22:29:10.232Z,95.80
2022-10-06T22:31:42.181Z,95.70
2022-10-06T22:34:11.235Z,95.80
2022-10-06T22:36:38.864Z,95.80
2022-10-06T22:39:06.025Z,95.70
2022-10-06T22:41:32.954Z,95.70
2022-10-06T22:44:00.399Z,95.50
2022-10-06T22:46:29.583Z,95.90
2022-10-06T22:48:56.738Z,95.50
2022-10-06T22:51:23.825Z,95.50
2022-10-06T22:53:57.998Z,95.50
2022-10-06T22:56:26.388Z,95.60
2022-10-06T22:58:53.381Z,95.60
2022-10-06T23:01:20.532Z,95.50
2022-10-06T23:03:48.013Z,95.50
2022-10-06T23:06:16.504Z,95.50
2022-10-06T23:08:43.890Z,95.50
2022-10-06T23:11:15.916Z,95.40
2022-10-06T23:13:43.477Z,95.40
2022-10-06T23:16:12.232Z,95.40
2022-10-06T23:18:40.728Z,95.30
2022-10-06T23:21:19.336Z,95.30
2022-10-06T23:23:46.768Z,95.30
2022-10-06T23:26:15.100Z,95.30
2022-10-06T23:28:42.525Z,95.40
2022-10-06T23:31:10.540Z,95.20
2022-10-06T23:33:37.655Z,95.20
2022-10-06T23:36:09.558Z,95.20
2022-10-06T23:38:37.432Z,95.10
2022-10-06T23:41:05.362Z,95.10
2022-10-06T23:43:32.312Z,95.00
2022-10-06T23:45:59.583Z,95.00
2022-10-06T23:48:26.646Z,95.10
2022-10-06T23:51:05.101Z,95.10
2022-10-06T23:53:32.092Z,95.10
2022-10-06T23:55:58.950Z,95.10
2022-10-06T23:58:26.808Z,95.10
